Terminal Aerodrome Forecast
Issued by NWS

Home | Current Version | Previous Version | Text Only | Print | Product List | Glossary On
Versions: 1 2 3 4 5 6 7 8 9 10 11 12 13 14 15 16 17 18 19 20
391
FTUS46 KSEW 231722
TAFBFI
TAF
KBFI 231722Z 2318/2418 16009KT P6SM OVC080
     FM232200 16011KT 5SM -SN OVC035
     FM240400 18008KT P6SM VCSH BKN020 OVC035
     FM240700 18011KT P6SM -SHRA BKN010 OVC020=

USA.gov is the U.S. government's official web portal to all federal, state and local government web resources and services.